Time;durP1;ratioP1;P1;durP2;ratioP2;P2;SDS_P1;SDS_P2;PMS_P1;PMS_P2;Temp;Humidity;BMP_temperature;BMP_pressure;BME280_temperature;BME280_humidity;BME280_pressure;Samples;Min_cycle;Max_cycle;Signal;HPM_P1;HPM_P2
2023/06/07 00:02:13;;;;;;;8.10;2.10;;;;;;;15.13;66.39;102228.53;5094588;27;96564;-27
2023/06/07 00:04:39;;;;;;;3.58;1.70;;;;;;;15.06;66.55;102223.44;5094509;27;96853;-27
2023/06/07 00:07:05;;;;;;;5.15;1.65;;;;;;;15.01;66.56;102214.63;5094092;27;99484;-27
2023/06/07 00:09:31;;;;;;;6.40;2.03;;;;;;;15.06;67.30;102228.91;5075967;27;101547;-27
2023/06/07 00:11:56;;;;;;;4.80;1.98;;;;;;;15.05;66.23;102228.97;5094161;27;96488;-27
2023/06/07 00:14:23;;;;;;;2.90;1.70;;;;;;;15.00;66.90;102231.97;5094351;27;96776;-26
2023/06/07 00:16:50;;;;;;;3.20;1.52;;;;;;;15.00;67.26;102237.44;5075052;27;101104;-27
2023/06/07 00:19:21;;;;;;;3.67;1.92;;;;;;;14.94;67.26;102234.19;5075373;27;101228;-27
2023/06/07 00:21:48;;;;;;;3.03;1.60;;;;;;;14.97;67.42;102237.63;5075430;27;96805;-28
2023/06/07 00:24:14;;;;;;;4.88;2.33;;;;;;;14.95;67.17;102233.22;5094118;27;96760;-27
2023/06/07 00:26:40;;;;;;;7.47;2.17;;;;;;;14.96;67.42;102234.97;5075061;27;101347;-28
2023/06/07 00:29:05;;;;;;;2.47;1.58;;;;;;;14.90;67.28;102216.22;5093882;27;99166;-28
2023/06/07 00:31:30;;;;;;;4.22;2.00;;;;;;;14.95;67.69;102223.19;5093903;27;96595;-27
2023/06/07 00:33:56;;;;;;;3.13;1.75;;;;;;;14.83;67.60;102222.03;5093708;27;107970;-27
2023/06/07 00:36:21;;;;;;;3.70;1.98;;;;;;;14.84;67.83;102217.47;5093536;27;102885;-27
2023/06/07 00:38:46;;;;;;;6.13;2.22;;;;;;;14.86;68.73;102230.03;5093742;27;97854;-27
2023/06/07 00:41:12;;;;;;;3.15;1.63;;;;;;;14.88;68.20;102227.25;5093428;27;97112;-27
2023/06/07 00:43:37;;;;;;;2.75;2.05;;;;;;;14.84;68.29;102223.78;5094025;27;96692;-27
2023/06/07 00:46:05;;;;;;;5.38;2.00;;;;;;;14.83;67.35;102223.91;5093622;27;110802;-27
2023/06/07 00:48:31;;;;;;;2.90;1.90;;;;;;;14.77;67.57;102230.56;5075043;27;101392;-27
2023/06/07 00:50:56;;;;;;;3.30;1.75;;;;;;;14.71;67.84;102222.75;5074993;27;96653;-27
2023/06/07 00:53:22;;;;;;;3.42;1.80;;;;;;;14.74;69.08;102221.69;5093735;27;96678;-27
2023/06/07 00:55:47;;;;;;;4.07;1.83;;;;;;;14.64;68.94;102215.88;5093296;27;99905;-27
2023/06/07 00:58:14;;;;;;;3.88;1.80;;;;;;;14.64;68.98;102227.66;5094124;27;97988;-27
2023/06/07 01:00:39;;;;;;;9.05;2.20;;;;;;;14.67;68.98;102215.69;5075115;27;96705;-27
2023/06/07 01:03:05;;;;;;;2.83;1.95;;;;;;;14.72;68.91;102229.94;5075227;27;96917;-28
2023/06/07 01:05:31;;;;;;;2.33;1.50;;;;;;;14.74;68.37;102228.03;5092944;27;97961;-27
2023/06/07 01:07:56;;;;;;;3.30;1.48;;;;;;;14.65;69.34;102217.63;5093699;27;97328;-27
2023/06/07 01:10:22;;;;;;;6.03;2.08;;;;;;;14.68;69.05;102225.63;5093554;27;97148;-27
2023/06/07 01:12:53;;;;;;;7.28;2.53;;;;;;;14.73;68.48;102226.28;5093303;27;96865;-27
2023/06/07 01:15:19;;;;;;;2.78;1.77;;;;;;;14.71;68.30;102225.47;5109245;27;101539;-27
2023/06/07 01:17:47;;;;;;;3.42;1.90;;;;;;;14.70;68.74;102228.28;5109261;27;101010;-27
2023/06/07 01:20:19;;;;;;;3.88;2.08;;;;;;;14.54;67.95;102204.63;5093238;27;96479;-27
2023/06/07 01:22:45;;;;;;;3.85;1.80;;;;;;;14.55;69.16;102216.41;5074964;27;96732;-27
2023/06/07 01:25:11;;;;;;;4.15;1.92;;;;;;;14.52;69.14;102208.38;5093129;27;98943;-27
2023/06/07 01:27:39;;;;;;;3.95;1.80;;;;;;;14.51;69.18;102225.69;5074406;27;101269;-27
2023/06/07 01:30:07;;;;;;;5.25;1.83;;;;;;;14.53;69.32;102221.03;5092598;27;96690;-27
2023/06/07 01:32:33;;;;;;;6.50;1.83;;;;;;;14.44;69.10;102215.13;5108768;27;96663;-27
2023/06/07 01:34:58;;;;;;;2.88;1.88;;;;;;;14.47;68.95;102211.34;5093103;27;97998;-27
2023/06/07 01:37:25;;;;;;;2.90;1.77;;;;;;;14.49;69.21;102211.25;5092666;27;98051;-27
2023/06/07 01:39:52;;;;;;;4.68;1.77;;;;;;;14.51;69.32;102220.22;5109121;27;96600;-27
2023/06/07 01:42:19;;;;;;;4.63;1.95;;;;;;;14.51;69.40;102217.50;5074645;27;96820;-27
2023/06/07 01:44:47;;;;;;;8.73;1.98;;;;;;;14.42;69.18;102216.19;5108877;27;100942;-27
2023/06/07 01:47:14;;;;;;;3.58;1.83;;;;;;;14.40;70.79;102208.09;5074582;27;100914;-27
2023/06/07 01:49:40;;;;;;;5.47;1.80;;;;;;;14.44;69.80;102216.97;5074556;27;96830;-27
2023/06/07 01:52:06;;;;;;;4.03;1.67;;;;;;;14.44;69.38;102214.22;5093061;27;96797;-27
2023/06/07 01:54:31;;;;;;;3.00;1.92;;;;;;;14.33;69.88;102201.22;5092128;27;99798;-26
2023/06/07 01:57:21;;;;;;;8.00;1.90;;;;;;;14.33;69.55;102209.38;5092736;27;106336;-27
2023/06/07 01:59:52;;;;;;;2.95;1.67;;;;;;;14.34;69.35;102202.09;5093242;27;96543;-27
2023/06/07 02:02:43;;;;;;;2.73;1.67;;;;;;;14.33;69.68;102206.66;5092713;27;96846;-31
2023/06/07 02:05:17;;;;;;;4.32;1.90;;;;;;;14.22;69.83;102190.03;5096258;27;99408;-27
2023/06/07 02:07:51;;;;;;;6.57;2.08;;;;;;;14.24;70.29;102208.03;5078869;27;97805;-27
2023/06/07 02:10:23;;;;;;;2.95;1.52;;;;;;;14.20;69.43;102195.53;5112424;27;96526;-27
2023/06/07 02:12:51;;;;;;;5.63;1.75;;;;;;;14.18;70.01;102200.22;5096462;27;96840;-28
2023/06/07 02:15:17;;;;;;;3.15;1.30;;;;;;;14.16;70.51;102204.88;5112117;27;100964;-27
2023/06/07 02:17:57;;;;;;;5.38;1.65;;;;;;;14.13;70.70;102204.16;5096186;27;97245;-28
2023/06/07 02:20:26;;;;;;;2.88;1.25;;;;;;;14.07;69.95;102199.06;5095792;27;96598;-27
2023/06/07 02:22:51;;;;;;;8.98;1.73;;;;;;;13.99;70.55;102188.53;5077413;27;96737;-27
2023/06/07 02:25:17;;;;;;;3.80;1.92;;;;;;;14.01;70.82;102203.88;5096106;27;97993;-27
2023/06/07 02:27:42;;;;;;;2.42;1.50;;;;;;;13.95;70.42;102189.69;5095878;27;98773;-27
2023/06/07 02:30:08;;;;;;;3.08;1.50;;;;;;;14.00;70.43;102203.94;5095748;27;105903;-27
2023/06/07 02:32:34;;;;;;;3.83;1.77;;;;;;;13.94;69.92;102194.28;5095927;27;97057;-29
2023/06/07 02:35:00;;;;;;;4.22;1.80;;;;;;;13.89;70.87;102199.06;5095918;27;98000;-27
2023/06/07 02:37:25;;;;;;;3.58;1.63;;;;;;;13.88;70.13;102197.31;5095956;27;97787;-26
2023/06/07 02:39:50;;;;;;;2.78;1.50;;;;;;;13.81;70.95;102199.47;5095849;27;96474;-28
2023/06/07 02:42:16;;;;;;;4.35;1.85;;;;;;;13.87;71.21;102202.84;5095347;27;111664;-27
2023/06/07 02:44:41;;;;;;;5.68;1.65;;;;;;;13.86;70.78;102199.25;5095483;27;103526;-27
2023/06/07 02:47:06;;;;;;;3.17;1.67;;;;;;;13.81;71.30;102196.75;5095510;27;99067;-27
2023/06/07 02:49:32;;;;;;;3.28;1.60;;;;;;;13.84;70.22;102200.28;5095918;27;96489;-27
2023/06/07 02:51:57;;;;;;;6.35;1.88;;;;;;;13.79;70.09;102204.13;5095956;27;96925;-27
2023/06/07 02:54:22;;;;;;;3.55;1.40;;;;;;;13.77;71.32;102197.00;5094987;27;114209;-29
2023/06/07 02:56:48;;;;;;;6.47;1.75;;;;;;;13.77;70.72;102206.03;5094820;27;112999;-27
2023/06/07 02:59:13;;;;;;;2.15;1.42;;;;;;;13.74;71.17;102211.66;5095459;27;96682;-27
2023/06/07 03:01:39;;;;;;;4.70;1.88;;;;;;;13.71;70.40;102203.66;5096060;27;96740;-27
2023/06/07 03:04:04;;;;;;;3.03;1.52;;;;;;;13.63;71.74;102203.19;5076691;27;100988;-28
2023/06/07 03:06:29;;;;;;;2.55;1.55;;;;;;;13.67;71.44;102201.19;5095064;27;99257;-27
2023/06/07 03:08:56;;;;;;;3.30;1.40;;;;;;;13.61;71.00;102191.50;5094703;27;96510;-27
2023/06/07 03:11:22;;;;;;;2.90;1.40;;;;;;;13.65;71.56;102201.25;5076595;27;97080;-29
2023/06/07 03:13:47;;;;;;;3.20;1.67;;;;;;;13.65;71.61;102203.97;5094867;27;99719;-27
2023/06/07 03:16:12;;;;;;;3.15;1.33;;;;;;;13.68;71.71;102206.56;5093723;27;105464;-27
2023/06/07 03:18:38;;;;;;;7.75;1.65;;;;;;;13.68;71.26;102192.03;5095362;27;96614;-27
2023/06/07 03:21:03;;;;;;;2.45;1.27;;;;;;;13.67;70.93;102193.03;5095350;27;96759;-27
2023/06/07 03:23:30;;;;;;;2.33;1.55;;;;;;;13.60;71.18;102184.28;5095033;27;99482;-27
2023/06/07 03:25:57;;;;;;;2.38;1.55;;;;;;;13.65;71.92;102197.66;5095246;27;97914;-27
2023/06/07 03:28:22;;;;;;;4.80;1.60;;;;;;;13.57;71.92;102184.47;5076398;27;96814;-26
2023/06/07 03:30:48;;;;;;;4.95;1.25;;;;;;;13.57;72.05;102189.91;5095146;27;96728;-27
2023/06/07 03:33:13;;;;;;;3.28;1.30;;;;;;;13.59;72.63;102196.16;5094405;27;98083;-27
2023/06/07 03:35:39;;;;;;;4.30;1.38;;;;;;;13.57;72.06;102192.63;5094932;27;97821;-27
2023/06/07 03:38:05;;;;;;;3.25;1.52;;;;;;;13.51;71.88;102185.66;5076055;27;96642;-27
2023/06/07 03:40:31;;;;;;;3.05;1.38;;;;;;;13.45;71.82;102174.22;5095214;27;96772;-27
2023/06/07 03:42:56;;;;;;;2.90;1.55;;;;;;;13.54;72.25;102207.28;5094976;27;97283;-27
2023/06/07 03:45:22;;;;;;;5.75;1.63;;;;;;;13.52;72.01;102194.72;5094466;27;99438;-27
2023/06/07 03:47:47;;;;;;;4.38;1.90;;;;;;;13.54;71.99;102196.41;5095182;27;96606;-27
2023/06/07 03:50:13;;;;;;;3.70;1.55;;;;;;;13.43;72.18;102198.78;5095063;27;96833;-27
2023/06/07 03:52:38;;;;;;;2.55;1.55;;;;;;;13.43;71.97;102182.44;5075982;27;101370;-27
2023/06/07 03:55:04;;;;;;;3.20;1.67;;;;;;;13.43;72.94;102201.50;5094479;27;97876;-27
2023/06/07 03:57:29;;;;;;;3.30;1.60;;;;;;;13.45;72.74;102201.44;5094413;27;96699;-27
2023/06/07 03:59:56;;;;;;;2.78;1.40;;;;;;;13.43;73.38;102195.19;5094627;27;96749;-27
2023/06/07 04:02:22;;;;;;;4.07;1.40;;;;;;;13.51;72.25;102207.41;5075715;27;101252;-27
2023/06/07 04:04:47;;;;;;;4.13;1.48;;;;;;;13.49;72.98;102203.94;5094630;27;97260;-28
2023/06/07 04:07:12;;;;;;;2.25;1.10;;;;;;;13.51;71.96;102201.97;5094673;27;96535;-27
2023/06/07 04:09:39;;;;;;;4.00;1.20;;;;;;;13.54;72.86;102198.25;5094063;27;104636;-27
2023/06/07 04:12:06;;;;;;;3.10;1.40;;;;;;;13.54;72.86;102207.28;5075720;27;101119;-27
2023/06/07 04:14:31;;;;;;;4.15;1.40;;;;;;;13.58;72.32;102197.97;5110493;27;100498;-27
2023/06/07 04:16:56;;;;;;;2.80;1.42;;;;;;;13.60;71.78;102209.66;5093720;27;107298;-27
2023/06/07 04:19:22;;;;;;;2.45;1.52;;;;;;;13.58;73.25;102211.59;5094123;27;96821;-27
2023/06/07 04:21:47;;;;;;;2.88;1.58;;;;;;;13.57;72.20;102219.84;5093632;27;97842;-27
2023/06/07 04:24:12;;;;;;;2.85;1.45;;;;;;;13.55;72.27;102213.59;5093612;27;98630;-27
2023/06/07 04:26:38;;;;;;;4.88;1.77;;;;;;;13.49;72.56;102212.09;5093748;27;96548;-27
2023/06/07 04:29:04;;;;;;;3.63;1.65;;;;;;;13.60;72.44;102219.69;5093946;27;96828;-27
2023/06/07 04:31:29;;;;;;;5.30;1.77;;;;;;;13.63;72.46;102218.63;5075226;27;100970;-27
2023/06/07 04:34:01;;;;;;;3.70;1.55;;;;;;;13.65;72.07;102214.88;5093610;27;97757;-27
2023/06/07 04:36:28;;;;;;;3.70;1.67;;;;;;;13.67;71.84;102221.13;5093517;27;96720;-27
2023/06/07 04:38:55;;;;;;;2.13;1.30;;;;;;;13.68;72.21;102219.28;5094131;27;96764;-27
2023/06/07 04:41:25;;;;;;;4.28;1.50;;;;;;;13.63;71.92;102227.69;5094049;27;97562;-27
2023/06/07 04:43:51;;;;;;;3.35;1.23;;;;;;;13.63;72.29;102222.25;5075202;27;100887;-27
2023/06/07 04:46:18;;;;;;;3.30;1.98;;;;;;;13.70;71.90;102222.81;5093231;27;96488;-28
2023/06/07 04:48:43;;;;;;;2.97;1.23;;;;;;;13.69;72.24;102221.94;5093613;27;96792;-27
2023/06/07 04:51:12;;;;;;;2.33;1.38;;;;;;;13.66;72.80;102218.47;5093189;27;116477;-27
2023/06/07 04:53:38;;;;;;;4.82;1.27;;;;;;;13.66;72.18;102215.75;5074847;27;99267;-27
2023/06/07 04:56:04;;;;;;;4.25;1.45;;;;;;;13.68;71.86;102228.34;5093831;27;96494;-27
2023/06/07 04:58:31;;;;;;;3.20;1.38;;;;;;;13.70;72.72;102233.69;5093591;27;96804;-27
2023/06/07 05:00:56;;;;;;;4.13;1.23;;;;;;;13.72;72.67;102224.47;5074937;27;101341;-28
2023/06/07 05:03:22;;;;;;;3.60;1.40;;;;;;;13.72;72.14;102221.75;5094021;27;97864;-28
2023/06/07 05:05:48;;;;;;;5.85;1.73;;;;;;;13.78;72.88;102220.56;5109577;27;96684;-27
2023/06/07 05:08:17;;;;;;;2.40;1.20;;;;;;;13.74;72.00;102208.06;5074948;27;96734;-29
2023/06/07 05:10:43;;;;;;;2.15;1.35;;;;;;;13.75;72.88;102218.00;5074320;27;100947;-27
2023/06/07 05:13:09;;;;;;;1.55;1.02;;;;;;;13.71;72.74;102213.69;5109175;27;101478;-27
2023/06/07 05:15:34;;;;;;;2.35;1.33;;;;;;;13.74;72.35;102227.13;5093455;27;96835;-27
2023/06/07 05:18:01;;;;;;;5.60;1.88;;;;;;;13.73;72.97;102217.19;5093626;27;96747;-27
2023/06/07 05:20:27;;;;;;;4.55;1.52;;;;;;;13.70;73.13;102222.81;5074179;27;101019;-26
2023/06/07 05:22:53;;;;;;;5.28;1.40;;;;;;;13.56;73.03;102221.69;5093094;27;98542;-27
2023/06/07 05:25:18;;;;;;;3.15;1.20;;;;;;;13.54;73.28;102222.75;5093531;27;96580;-28
2023/06/07 05:27:43;;;;;;;7.15;1.48;;;;;;;13.54;73.37;102218.16;5093130;27;114539;-27
2023/06/07 05:30:09;;;;;;;2.05;1.40;;;;;;;13.54;73.45;102215.44;5093022;27;99303;-27
2023/06/07 05:32:36;;;;;;;2.55;1.33;;;;;;;13.67;72.84;102226.56;5092664;27;98349;-27
2023/06/07 05:35:03;;;;;;;2.92;1.30;;;;;;;13.73;72.53;102219.91;5073857;27;97257;-28
2023/06/07 05:37:29;;;;;;;2.55;1.20;;;;;;;13.82;72.28;102216.69;5073914;27;96892;-28
2023/06/07 05:39:55;;;;;;;2.50;1.35;;;;;;;13.90;72.20;102222.63;5077858;27;100933;-26
2023/06/07 05:42:21;;;;;;;2.90;1.60;;;;;;;13.96;72.10;102215.97;5078144;27;101403;-27
2023/06/07 05:44:47;;;;;;;2.95;1.42;;;;;;;14.09;71.65;102227.97;5096905;27;96548;-27
2023/06/07 05:47:13;;;;;;;3.42;1.35;;;;;;;14.08;71.01;102211.69;5112856;27;96895;-27
2023/06/07 05:49:38;;;;;;;2.38;1.35;;;;;;;14.15;71.53;102229.47;5096730;27;97891;-27
2023/06/07 05:52:04;;;;;;;4.40;1.70;;;;;;;14.17;71.43;102222.97;5096933;27;97814;-27
2023/06/07 05:54:29;;;;;;;3.40;1.13;;;;;;;14.17;71.46;102219.38;5096472;27;96855;-27
2023/06/07 05:56:54;;;;;;;3.97;1.65;;;;;;;14.18;71.07;102218.41;5096757;27;96739;-27
2023/06/07 05:59:20;;;;;;;3.90;1.85;;;;;;;14.29;71.24;102226.00;5096098;27;97639;-27
2023/06/07 06:01:46;;;;;;;6.00;1.63;;;;;;;14.25;72.25;102222.53;5112295;27;102739;-27
2023/06/07 06:04:11;;;;;;;5.97;1.60;;;;;;;14.17;71.23;102228.44;5077791;27;96874;-27
2023/06/07 06:06:38;;;;;;;3.85;1.15;;;;;;;14.22;70.94;102233.63;5096527;27;96767;-27
2023/06/07 06:09:04;;;;;;;3.17;1.45;;;;;;;14.18;71.12;102219.31;5077689;27;101146;-28
2023/06/07 06:11:30;;;;;;;2.45;1.38;;;;;;;14.22;71.19;102234.50;5077644;27;101609;-27
2023/06/07 06:13:55;;;;;;;4.40;1.70;;;;;;;14.19;71.06;102231.94;5096151;27;96700;-27
2023/06/07 06:16:20;;;;;;;1.58;1.13;;;;;;;14.21;70.71;102234.59;5096535;27;105076;-29
2023/06/07 06:18:45;;;;;;;3.10;1.38;;;;;;;14.23;71.04;102243.59;5096305;27;97443;-27
2023/06/07 06:21:11;;;;;;;2.63;1.30;;;;;;;14.21;71.00;102232.75;5095123;27;122151;-26
2023/06/07 06:23:36;;;;;;;5.25;1.70;;;;;;;14.24;71.10;102239.88;5095550;27;96644;-27
2023/06/07 06:26:01;;;;;;;2.85;1.20;;;;;;;14.29;71.03;102247.81;5096407;27;96752;-27
2023/06/07 06:28:28;;;;;;;2.90;1.67;;;;;;;14.37;70.86;102232.81;5096008;27;98103;-27
2023/06/07 06:30:53;;;;;;;2.15;1.25;;;;;;;14.64;70.92;102254.06;5077212;27;100983;-27
2023/06/07 06:33:19;;;;;;;5.45;1.52;;;;;;;14.90;69.89;102235.31;5095809;27;96636;-27
2023/06/07 06:35:45;;;;;;;3.95;1.65;;;;;;;15.23;69.22;102246.13;5096103;27;96792;-27
2023/06/07 06:38:11;;;;;;;1.92;1.17;;;;;;;15.37;68.87;102246.19;5095233;27;99187;-28
2023/06/07 06:40:36;;;;;;;2.03;1.17;;;;;;;15.42;68.27;102256.84;5096161;27;99221;-26
2023/06/07 06:43:02;;;;;;;4.95;1.63;;;;;;;15.55;68.11;102251.53;5095987;27;96775;-27
2023/06/07 06:45:28;;;;;;;4.65;1.33;;;;;;;15.54;67.81;102247.03;5095804;27;96825;-27
2023/06/07 06:47:54;;;;;;;3.95;1.40;;;;;;;15.65;67.76;102261.78;5094777;27;99063;-27
2023/06/07 06:50:19;;;;;;;4.00;1.33;;;;;;;15.74;67.61;102256.81;5095543;27;97769;-29
2023/06/07 06:52:45;;;;;;;1.95;1.13;;;;;;;15.77;67.23;102251.13;5095559;27;96607;-27
2023/06/07 06:55:10;;;;;;;4.80;1.60;;;;;;;15.82;67.65;102262.66;5095604;27;96867;-29
2023/06/07 06:57:35;;;;;;;3.58;1.25;;;;;;;15.84;67.38;102245.19;5095716;27;97178;-27
2023/06/07 07:00:10;;;;;;;4.05;1.42;;;;;;;15.91;67.38;102248.44;5095300;27;99299;-26
2023/06/07 07:02:36;;;;;;;3.67;1.70;;;;;;;15.85;66.82;102241.50;5076847;27;96630;-27
2023/06/07 07:05:03;;;;;;;6.30;1.60;;;;;;;15.86;67.35;102253.31;5095933;27;96798;-27
2023/06/07 07:07:29;;;;;;;4.25;1.75;;;;;;;15.80;67.29;102245.47;5111198;27;101351;-27
2023/06/07 07:09:54;;;;;;;3.60;1.33;;;;;;;15.82;67.57;102254.47;5076667;27;100740;-27
2023/06/07 07:12:21;;;;;;;5.60;1.55;;;;;;;15.77;67.71;102240.22;5095081;27;96735;-27
2023/06/07 07:14:46;;;;;;;4.18;1.25;;;;;;;15.80;67.74;102231.81;5095103;27;96666;-27
2023/06/07 07:17:12;;;;;;;2.15;1.17;;;;;;;15.88;67.70;102245.91;5095049;27;98136;-27
2023/06/07 07:19:37;;;;;;;4.22;1.70;;;;;;;15.93;67.35;102241.91;5095226;27;97795;-27
2023/06/07 07:22:02;;;;;;;4.50;1.45;;;;;;;16.04;66.75;102238.53;5095119;27;96673;-27
2023/06/07 07:24:28;;;;;;;3.55;1.13;;;;;;;16.14;66.85;102253.38;5076870;27;96921;-27
2023/06/07 07:26:53;;;;;;;4.93;1.30;;;;;;;16.22;66.57;102249.25;5094989;27;106225;-28
2023/06/07 07:29:19;;;;;;;4.55;1.60;;;;;;;16.34;66.15;102243.88;5095497;27;97342;-27
2023/06/07 07:31:44;;;;;;;3.60;1.45;;;;;;;16.46;65.83;102244.09;5094691;27;96566;-27
2023/06/07 07:34:10;;;;;;;3.00;1.60;;;;;;;16.72;65.70;102242.41;5094914;27;96757;-27
2023/06/07 07:36:36;;;;;;;6.53;1.33;;;;;;;16.91;64.99;102233.91;5075419;27;100984;-27
2023/06/07 07:39:04;;;;;;;2.20;1.30;;;;;;;17.15;64.53;102245.94;5094826;27;99561;-27
2023/06/07 07:41:33;;;;;;;2.75;1.48;;;;;;;17.09;64.21;102226.31;5076408;27;96602;-27
2023/06/07 07:43:59;;;;;;;2.78;1.23;;;;;;;16.90;64.27;102232.13;5076268;27;96846;-27
2023/06/07 07:46:24;;;;;;;3.85;1.30;;;;;;;16.80;64.50;102251.00;5094819;27;97545;-28
2023/06/07 07:48:49;;;;;;;4.53;1.55;;;;;;;16.74;65.11;102249.53;5094432;27;99791;-27
2023/06/07 07:51:15;;;;;;;3.38;1.33;;;;;;;17.00;65.42;102257.94;5094988;27;96602;-27
2023/06/07 07:53:44;;;;;;;3.42;1.50;;;;;;;17.34;64.32;102252.94;5076585;27;96739;-27
2023/06/07 07:56:09;;;;;;;3.95;1.77;;;;;;;17.62;63.30;102252.78;5075849;27;100681;-26
2023/06/07 07:58:37;;;;;;;8.45;1.98;;;;;;;17.63;63.56;102256.41;5094335;27;99463;-28
2023/06/07 08:01:03;;;;;;;3.78;1.65;;;;;;;17.94;63.08;102263.41;5093285;27;96619;-27
2023/06/07 08:03:29;;;;;;;4.15;1.90;;;;;;;18.13;62.01;102253.88;5110533;27;97196;-27
2023/06/07 08:05:55;;;;;;;4.57;1.90;;;;;;;18.48;61.45;102264.22;5094231;27;99341;-27
2023/06/07 08:08:20;;;;;;;3.17;1.33;;;;;;;18.67;60.33;102256.38;5094242;27;99613;-27
2023/06/07 08:10:47;;;;;;;3.55;1.45;;;;;;;18.82;60.43;102262.63;5094521;27;96480;-27
2023/06/07 08:13:13;;;;;;;3.05;1.60;;;;;;;18.91;59.91;102264.69;5075741;27;96860;-27
2023/06/07 08:15:39;;;;;;;2.17;1.08;;;;;;;19.05;59.65;102256.31;5075643;27;100792;-28
2023/06/07 08:18:04;;;;;;;3.17;1.52;;;;;;;19.00;58.99;102246.69;5094818;27;97815;-28
2023/06/07 08:20:29;;;;;;;3.13;1.40;;;;;;;19.14;58.96;102248.34;5094001;27;96508;-27
2023/06/07 08:22:55;;;;;;;5.60;1.30;;;;;;;19.29;58.40;102252.72;5094658;27;96785;-27
2023/06/07 08:25:21;;;;;;;7.25;1.67;;;;;;;19.29;57.58;102248.09;5074980;27;101492;-27
2023/06/07 08:27:46;;;;;;;4.30;1.45;;;;;;;19.33;57.72;102247.84;5094167;27;97804;-28
2023/06/07 08:30:12;;;;;;;2.50;1.30;;;;;;;19.46;57.68;102244.03;5093949;27;96584;-27
2023/06/07 08:32:38;;;;;;;2.08;1.35;;;;;;;19.58;57.92;102247.72;5093747;27;96802;-27
2023/06/07 08:35:04;;;;;;;4.63;1.70;;;;;;;19.58;57.60;102235.84;5093865;27;97576;-27
2023/06/07 08:37:29;;;;;;;4.82;1.25;;;;;;;19.69;57.61;102236.78;5093514;27;99178;-27
2023/06/07 08:39:55;;;;;;;5.03;1.38;;;;;;;19.80;56.38;102235.94;5093749;27;97241;-26
2023/06/07 08:42:20;;;;;;;5.93;1.52;;;;;;;19.92;56.78;102234.09;5094333;27;96809;-27
2023/06/07 08:44:45;;;;;;;4.90;1.58;;;;;;;20.06;56.72;102244.00;5093637;27;97918;-27
2023/06/07 08:47:14;;;;;;;3.85;1.48;;;;;;;20.15;56.57;102243.28;5093818;27;97758;-26
2023/06/07 08:49:42;;;;;;;4.70;1.73;;;;;;;20.09;56.69;102241.00;5074797;27;97059;-27
2023/06/07 08:52:09;;;;;;;2.97;1.45;;;;;;;20.06;56.56;102244.88;5093647;27;96765;-27
2023/06/07 08:54:39;;;;;;;4.95;2.00;;;;;;;20.23;56.58;102249.03;5075066;27;101063;-28
2023/06/07 08:57:05;;;;;;;8.15;1.67;;;;;;;20.42;56.50;102239.28;5109378;27;98918;-26
2023/06/07 08:59:31;;;;;;;4.07;1.33;;;;;;;20.53;55.97;102236.56;5075083;27;96539;-27
2023/06/07 09:01:56;;;;;;;6.60;1.20;;;;;;;20.67;55.79;102236.34;5093534;27;96880;-27
2023/06/07 09:04:22;;;;;;;4.30;1.83;;;;;;;20.72;55.28;102233.19;5093149;27;111028;-26
2023/06/07 09:06:47;;;;;;;4.25;1.48;;;;;;;20.73;55.52;102230.28;5093744;27;99065;-26
2023/06/07 09:09:12;;;;;;;3.85;1.48;;;;;;;20.82;54.88;102230.56;5093645;27;96686;-27
2023/06/07 09:11:38;;;;;;;3.13;1.48;;;;;;;20.97;54.72;102240.28;5093302;27;96826;-27
2023/06/07 09:14:03;;;;;;;3.67;1.90;;;;;;;21.13;54.79;102238.00;5092599;27;105531;-27
2023/06/07 09:16:29;;;;;;;7.22;2.00;;;;;;;21.29;54.34;102236.72;5057632;27;99725;-26
2023/06/07 09:18:54;;;;;;;4.18;1.27;;;;;;;21.34;52.61;102246.31;5093246;27;96624;-27
2023/06/07 09:21:20;;;;;;;4.38;1.70;;;;;;;21.21;54.65;102246.50;5074623;27;97088;-26
2023/06/07 09:23:46;;;;;;;3.67;1.60;;;;;;;21.23;54.18;102249.09;5093408;27;98369;-27
2023/06/07 09:26:11;;;;;;;5.07;1.63;;;;;;;21.33;53.45;102246.44;5093045;27;101778;-27
2023/06/07 09:28:37;;;;;;;6.65;1.88;;;;;;;21.39;53.76;102237.66;5074819;27;96663;-26
2023/06/07 09:31:04;;;;;;;8.98;1.27;;;;;;;21.34;54.25;102237.19;5075149;27;96848;-27
2023/06/07 09:33:30;;;;;;;3.13;1.20;;;;;;;21.51;52.53;102236.66;5074212;27;101107;-27
2023/06/07 09:36:04;;;;;;;8.48;1.67;;;;;;;21.68;52.66;102240.69;5092900;27;99639;-26
2023/06/07 09:38:30;;;;;;;4.35;1.63;;;;;;;21.71;53.00;102234.91;5092410;27;96744;-28
2023/06/07 09:40:58;;;;;;;4.47;1.70;;;;;;;21.81;52.54;102237.78;5093117;27;96828;-27
2023/06/07 09:43:23;;;;;;;4.75;1.77;;;;;;;21.84;52.09;102223.69;5074219;27;100927;-27
2023/06/07 09:45:53;;;;;;;6.90;1.42;;;;;;;22.12;51.80;102224.00;5093005;27;97278;-27
2023/06/07 09:48:19;;;;;;;2.80;1.27;;;;;;;22.27;51.96;102222.69;5109058;27;97557;-27
2023/06/07 09:50:57;;;;;;;5.65;1.92;;;;;;;22.45;50.47;102225.66;5074438;27;96817;-27
2023/06/07 09:53:23;;;;;;;4.15;1.85;;;;;;;22.53;51.07;102223.09;5074158;27;100850;-27
2023/06/07 09:55:49;;;;;;;7.35;1.80;;;;;;;22.56;51.17;102216.41;5109205;27;100869;-27
2023/06/07 09:58:23;;;;;;;4.10;1.45;;;;;;;22.68;50.07;102226.34;5092835;27;96738;-27
2023/06/07 10:00:49;;;;;;;3.70;1.80;;;;;;;22.61;50.56;102225.16;5093144;27;96589;-27
2023/06/07 10:03:15;;;;;;;3.75;1.58;;;;;;;22.53;50.33;102233.28;5092013;27;99393;-27
2023/06/07 10:05:41;;;;;;;4.40;1.48;;;;;;;22.50;50.38;102217.84;5074187;27;100860;-27
2023/06/07 10:08:09;;;;;;;3.67;1.67;;;;;;;22.69;50.74;102212.41;5074261;27;96587;-27
2023/06/07 10:10:35;;;;;;;5.18;1.27;;;;;;;22.76;50.47;102217.34;5092827;27;96827;-27
2023/06/07 10:13:07;;;;;;;4.20;1.90;;;;;;;22.76;49.26;102225.63;5092572;27;97998;-26
2023/06/07 10:15:34;;;;;;;6.05;1.70;;;;;;;22.89;49.82;102213.31;5073912;27;100762;-27
2023/06/07 10:18:19;;;;;;;5.18;1.65;;;;;;;23.15;48.83;102218.34;5074220;27;96800;-27
2023/06/07 10:21:02;;;;;;;5.13;1.77;;;;;;;23.16;48.74;102214.56;5109006;27;96940;-27
2023/06/07 10:23:34;;;;;;;4.15;1.60;;;;;;;23.22;48.44;102227.81;5092716;27;97955;-27
2023/06/07 10:26:04;;;;;;;4.07;1.52;;;;;;;23.21;48.21;102219.66;5111824;27;101001;-28
2023/06/07 10:29:08;;;;;;;3.17;1.63;;;;;;;23.43;47.85;102207.44;5077072;27;97047;-27
2023/06/07 10:31:46;;;;;;;5.28;1.80;;;;;;;23.59;47.61;102217.94;5032324;27;96839;-26
2023/06/07 10:34:14;;;;;;;4.22;2.00;;;;;;;23.69;47.86;102216.91;5069116;27;99206;-27
2023/06/07 10:36:40;;;;;;;3.80;1.48;;;;;;;23.64;47.59;102210.94;5076889;27;101305;-27
2023/06/07 10:39:07;;;;;;;4.60;1.73;;;;;;;23.62;47.79;102203.78;5077289;27;96834;-27
2023/06/07 10:41:34;;;;;;;6.75;1.77;;;;;;;23.51;48.46;102202.06;5077175;27;96922;-27
2023/06/07 10:44:01;;;;;;;5.55;1.88;;;;;;;23.62;48.07;102210.22;5111757;27;101312;-27
2023/06/07 10:46:27;;;;;;;3.08;1.40;;;;;;;23.70;46.87;102198.41;5077444;27;100844;-27
2023/06/07 10:48:55;;;;;;;5.68;1.52;;;;;;;23.61;47.81;102207.59;5077126;27;96720;-27
2023/06/07 10:52:02;;;;;;;5.60;2.05;;;;;;;23.89;47.17;102205.84;5095747;27;96754;-27
2023/06/07 10:54:32;;;;;;;4.97;1.75;;;;;;;23.89;47.62;102192.88;5094566;27;99755;-27
2023/06/07 10:56:59;;;;;;;3.95;1.75;;;;;;;24.02;47.26;102194.44;5075330;27;100154;-27
2023/06/07 10:59:25;;;;;;;6.70;1.85;;;;;;;24.07;47.21;102181.88;5074745;27;96911;-27
2023/06/07 11:01:54;;;;;;;4.80;1.27;;;;;;;24.15;47.33;102179.25;5077119;27;96708;-27
2023/06/07 11:04:35;;;;;;;4.75;1.98;;;;;;;24.13;45.74;102181.28;5076575;27;101052;-27
2023/06/07 11:07:20;;;;;;;2.93;1.67;;;;;;;24.04;45.71;102184.97;5076781;27;100837;-27
2023/06/07 11:09:48;;;;;;;5.70;1.60;;;;;;;24.19;46.58;102196.41;5095341;27;96584;-27
2023/06/07 11:12:35;;;;;;;3.00;1.58;;;;;;;24.31;46.90;102186.94;5077138;27;96643;-26
2023/06/07 11:15:20;;;;;;;5.55;1.50;;;;;;;24.30;44.84;102178.75;5094026;27;99039;-27
2023/06/07 11:18:05;;;;;;;5.40;1.80;;;;;;;24.31;46.14;102181.38;5095113;27;99203;-28
2023/06/07 11:20:40;;;;;;;6.18;1.90;;;;;;;24.43;45.90;102186.72;5075813;27;97569;-27
2023/06/07 11:23:25;;;;;;;5.05;1.90;;;;;;;24.53;45.84;102194.00;5076732;27;96930;-28
2023/06/07 11:25:53;;;;;;;4.45;1.60;;;;;;;24.38;45.14;102189.94;5076554;27;100608;-27